Terminal Aerodrome Forecast
Issued by NWS Brownsville, TX

Home | Current Version | Previous Version | Text Only | Print | Product List | Glossary On
Versions: 1 2 3 4 5 6 7 8 9 10 11 12 13 14 15 16 17 18
000
FTUS44 KBRO 052048 AAA
TAFMFE
TAF AMD
KMFE 052048Z 0521/0618 14014G20KT P6SM FEW025 BKN045 OVC050
      TEMPO 0521/0524 BKN026
     FM060300 13010KT P6SM BKN015
     FM061500 13015G20KT P6SM SCT015 BKN030=

USA.gov is the U.S. government's official web portal to all federal, state and local government web resources and services.